This is the latest recevied weather packets stored in our database for station/object DG0PX-12. If no packets are shown the sender has not sent any weather packets the latest 1 day(s).
| Time | Temp. | Humidity | Pressure | Rain* | Wind** | Luminosity | Snow |
|---|---|---|---|---|---|---|---|
| 1778078753 | 23.33° C | 36% | 936 hPa | - | - | - | - |
| 1778073352 | 25.56° C | 30% | 937.2 hPa | - | - | - | - |
| 1778067051 | 21.11° C | 41% | 938 hPa | - | - | - | - |
| 1778065251 | 22.22° C | 40% | 938.6 hPa | - | - | - | - |
| 1778064351 | 21.11° C | 42% | 938.9 hPa | - | - | - | - |
| 1778063451 | 19.44° C | 48% | 938.9 hPa | - | - | - | - |
| 1778062550 | 20° C | 45% | 939.2 hPa | - | - | - | - |
| 1778061650 | 19.44° C | 46% | 939.4 hPa | - | - | - | - |
| 1778060750 | 20.56° C | 44% | 939.4 hPa | - | - | - | - |
| 1778059850 | 18.89° C | 48% | 939.2 hPa | - | - | - | - |
| 1778058950 | 18.89° C | 51% | 939.4 hPa | - | - | - | - |
| 1778058050 | 18.89° C | 49% | 939.3 hPa | - | - | - | - |
| 1778053549 | 18.33° C | 48% | 939.6 hPa | - | - | - | - |
| 1778052648 | 18.89° C | 47% | 939.9 hPa | - | - | - | - |
| 1778047247 | 16.67° C | 58% | 940.6 hPa | - | - | - | - |
| 1778043646 | 12.22° C | 79% | 940.9 hPa | - | - | - | - |
| 1778042746 | 12.78° C | 74% | 941 hPa | - | - | - | - |
| 1778041846 | 12.78° C | 74% | 941 hPa | - | - | - | - |
| 1778040946 | 11.67° C | 81% | 941 hPa | - | - | - | - |
| 1778038245 | 12.22° C | 78% | 941.4 hPa | - | - | - | - |
| 1778037345 | 11.67° C | 80% | 941.6 hPa | - | - | - | - |
| 1778036445 | 11.67° C | 79% | 941.5 hPa | - | - | - | - |
| 1778035545 | 11.11° C | 84% | 941.8 hPa | - | - | - | - |
| 1778034645 | 10.56° C | 88% | 941.9 hPa | - | - | - | - |
| 1778033745 | 11.67° C | 84% | 941.5 hPa | - | - | - | - |
* Rain since midnight (hover to see other rain measurements)
** Current wind speed in m/s (hover to see current wind gust speed)